createdAt,value
2023-03-16T00:00:19.671Z,522.00
2023-03-16T00:04:19.372Z,519.00
2023-03-16T00:08:19.033Z,516.00
2023-03-16T00:12:18.693Z,511.00
2023-03-16T00:16:18.320Z,508.00
2023-03-16T00:20:17.963Z,515.00
2023-03-16T00:24:17.575Z,514.00
2023-03-16T00:28:17.227Z,512.00
2023-03-16T00:32:16.829Z,513.00
2023-03-16T00:36:16.466Z,512.00
2023-03-16T00:40:16.120Z,512.00
2023-03-16T00:44:15.912Z,512.00
2023-03-16T00:48:15.534Z,512.00
2023-03-16T00:52:15.189Z,513.00
2023-03-16T00:56:14.802Z,515.00
2023-03-16T01:00:14.450Z,517.00
2023-03-16T01:04:14.069Z,518.00
2023-03-16T01:08:13.706Z,522.00
2023-03-16T01:12:13.326Z,524.00
2023-03-16T01:16:12.954Z,528.00
2023-03-16T01:20:12.628Z,530.00
2023-03-16T01:24:12.212Z,531.00
2023-03-16T01:28:11.916Z,532.00
2023-03-16T01:32:11.796Z,529.00
2023-03-16T01:36:11.611Z,523.00
2023-03-16T01:40:11.360Z,525.00
2023-03-16T01:44:11.049Z,525.00
2023-03-16T01:48:10.738Z,527.00
2023-03-16T01:52:10.432Z,527.00
2023-03-16T01:56:10.152Z,524.00
2023-03-16T02:00:09.886Z,524.00
2023-03-16T02:04:09.594Z,523.00
2023-03-16T02:08:09.220Z,524.00
2023-03-16T02:12:08.916Z,522.00
2023-03-16T02:16:08.714Z,521.00
2023-03-16T02:20:08.353Z,524.00
2023-03-16T02:24:08.091Z,529.00
2023-03-16T02:28:07.805Z,528.00
2023-03-16T02:32:07.534Z,528.00
2023-03-16T02:36:07.387Z,530.00
2023-03-16T02:40:06.974Z,530.00
2023-03-16T02:44:06.730Z,532.00
2023-03-16T02:48:06.510Z,532.00
2023-03-16T02:52:06.293Z,530.00
2023-03-16T02:56:05.999Z,526.00
2023-03-16T03:00:05.698Z,523.00
2023-03-16T03:04:05.439Z,520.00
2023-03-16T03:08:05.063Z,521.00
2023-03-16T03:12:04.770Z,527.00
2023-03-16T03:16:04.501Z,533.00
2023-03-16T03:20:04.146Z,526.00
2023-03-16T03:24:03.934Z,527.00
2023-03-16T03:28:03.618Z,528.00
2023-03-16T03:32:03.269Z,530.00
2023-03-16T03:36:03.123Z,528.00
2023-03-16T03:40:02.711Z,526.00
2023-03-16T03:44:02.472Z,530.00
2023-03-16T03:48:02.156Z,529.00
2023-03-16T03:52:01.866Z,528.00
2023-03-16T03:56:01.573Z,528.00
2023-03-16T04:00:01.246Z,527.00
2023-03-16T04:04:00.961Z,526.00
2023-03-16T04:08:00.613Z,523.00
2023-03-16T04:12:00.320Z,525.00
2023-03-16T04:16:00.091Z,518.00
2023-03-16T04:19:59.701Z,521.00
2023-03-16T04:23:59.440Z,523.00
2023-03-16T04:27:59.152Z,520.00
2023-03-16T04:31:58.825Z,526.00
2023-03-16T04:35:58.568Z,524.00
2023-03-16T04:39:58.238Z,522.00
2023-03-16T04:43:57.953Z,525.00
2023-03-16T04:47:57.714Z,525.00
2023-03-16T04:51:57.544Z,519.00
2023-03-16T04:55:57.160Z,519.00
2023-03-16T04:59:56.928Z,527.00
2023-03-16T05:03:58.607Z,526.00
2023-03-16T05:07:56.380Z,527.00
2023-03-16T05:11:56.030Z,529.00
2023-03-16T05:15:55.810Z,528.00
2023-03-16T05:19:55.395Z,528.00
2023-03-16T05:23:55.103Z,528.00
2023-03-16T05:27:54.694Z,529.00
2023-03-16T05:31:54.350Z,533.00
2023-03-16T05:35:54.107Z,532.00
2023-03-16T05:39:53.711Z,534.00
2023-03-16T05:43:53.421Z,532.00
2023-03-16T05:47:53.082Z,531.00
2023-03-16T05:51:52.708Z,529.00
2023-03-16T05:55:52.398Z,536.00
2023-03-16T05:59:52.068Z,532.00
2023-03-16T06:03:51.915Z,536.00
2023-03-16T06:07:51.425Z,534.00
2023-03-16T06:11:51.046Z,533.00
2023-03-16T06:15:50.772Z,538.00
2023-03-16T06:19:50.362Z,540.00
2023-03-16T06:23:50.091Z,543.00
2023-03-16T06:27:49.872Z,539.00
2023-03-16T06:31:49.721Z,536.00
2023-03-16T06:35:49.535Z,565.00
2023-03-16T06:39:49.486Z,601.00
2023-03-16T06:43:49.491Z,692.00
2023-03-16T06:47:49.024Z,704.00
2023-03-16T06:51:49.015Z,779.00
2023-03-16T06:55:49.018Z,824.00
2023-03-16T06:59:48.982Z,813.00
2023-03-16T07:03:48.316Z,812.00
2023-03-16T07:07:47.966Z,819.00
2023-03-16T07:11:47.646Z,812.00
2023-03-16T07:15:47.480Z,803.00
2023-03-16T07:19:46.974Z,817.00
2023-03-16T07:23:46.679Z,829.00
2023-03-16T07:27:46.502Z,839.00
2023-03-16T07:31:46.135Z,838.00
2023-03-16T07:35:45.852Z,856.00
2023-03-16T07:39:47.522Z,874.00
2023-03-16T07:43:45.470Z,893.00
2023-03-16T07:47:45.529Z,901.00
2023-03-16T07:51:45.077Z,915.00
2023-03-16T07:55:45.038Z,939.00
2023-03-16T07:59:44.343Z,1001.00
2023-03-16T08:03:44.053Z,1080.00
2023-03-16T08:07:43.811Z,1078.00
2023-03-16T08:11:43.508Z,1018.00
2023-03-16T08:15:43.232Z,1016.00
2023-03-16T08:19:42.884Z,1013.00
2023-03-16T08:23:43.084Z,991.00
2023-03-16T08:27:42.295Z,1003.00
2023-03-16T08:31:42.122Z,979.00
2023-03-16T08:35:41.691Z,956.00
2023-03-16T08:39:41.537Z,933.00
2023-03-16T08:43:41.557Z,983.00
2023-03-16T08:47:41.040Z,993.00
2023-03-16T08:51:40.739Z,983.00
2023-03-16T08:55:40.395Z,960.00
2023-03-16T08:59:40.320Z,943.00
2023-03-16T09:03:40.073Z,923.00
2023-03-16T09:07:40.052Z,911.00
2023-03-16T09:11:39.593Z,891.00
2023-03-16T09:15:39.574Z,869.00
2023-03-16T09:19:53.809Z,867.00
2023-03-16T09:23:39.765Z,845.00
2023-03-16T09:27:38.466Z,815.00
2023-03-16T09:31:38.644Z,824.00
2023-03-16T09:35:38.128Z,833.00
2023-03-16T09:39:38.063Z,927.00
2023-03-16T09:43:37.534Z,763.00
2023-03-16T09:47:37.623Z,958.00
2023-03-16T09:51:37.579Z,771.00
2023-03-16T09:55:37.568Z,771.00
2023-03-16T09:59:37.550Z,753.00
2023-03-16T10:03:37.031Z,774.00
2023-03-16T10:07:36.711Z,785.00
2023-03-16T10:11:36.570Z,778.00
2023-03-16T10:15:36.314Z,756.00
2023-03-16T10:19:36.139Z,730.00
2023-03-16T10:23:36.032Z,718.00
2023-03-16T10:27:36.112Z,711.00
2023-03-16T10:31:35.623Z,706.00
2023-03-16T10:35:35.561Z,697.00
2023-03-16T10:39:35.298Z,695.00
2023-03-16T10:43:35.561Z,825.00
2023-03-16T10:47:35.117Z,897.00
2023-03-16T10:51:35.067Z,906.00
2023-03-16T10:55:34.502Z,919.00
2023-03-16T10:59:34.595Z,959.00
2023-03-16T11:03:35.187Z,974.00
2023-03-16T11:07:33.762Z,1034.00
2023-03-16T11:11:33.533Z,1003.00
2023-03-16T11:15:33.191Z,1001.00
2023-03-16T11:19:32.773Z,955.00
2023-03-16T11:23:32.431Z,1032.00
2023-03-16T11:27:32.052Z,1044.00
2023-03-16T11:31:31.809Z,1023.00
2023-03-16T11:35:31.642Z,1013.00
2023-03-16T11:39:31.102Z,1125.00
2023-03-16T11:43:31.097Z,1108.00
2023-03-16T11:47:30.226Z,1084.00
2023-03-16T11:51:30.133Z,1092.00
2023-03-16T11:55:29.870Z,1084.00
2023-03-16T11:59:29.177Z,1073.00
2023-03-16T12:03:28.940Z,1106.00
2023-03-16T12:07:28.526Z,1059.00
2023-03-16T12:11:28.604Z,992.00
2023-03-16T12:15:28.477Z,1047.00
2023-03-16T12:19:27.958Z,1027.00
2023-03-16T12:23:28.969Z,1011.00
2023-03-16T12:27:27.616Z,1007.00
2023-03-16T12:31:27.668Z,1053.00
2023-03-16T12:35:28.138Z,1050.00
2023-03-16T12:39:27.169Z,1035.00
2023-03-16T12:43:27.065Z,1024.00
2023-03-16T12:47:27.130Z,1019.00
2023-03-16T12:51:26.753Z,1015.00
2023-03-16T12:55:26.596Z,989.00
2023-03-16T12:59:26.124Z,969.00
2023-03-16T13:03:25.713Z,953.00
2023-03-16T13:07:25.634Z,934.00
2023-03-16T13:11:24.940Z,926.00
2023-03-16T13:15:24.607Z,947.00
2023-03-16T13:19:24.264Z,957.00
2023-03-16T13:23:24.176Z,955.00
2023-03-16T13:27:23.535Z,920.00
2023-03-16T13:31:23.207Z,849.00
2023-03-16T13:35:22.765Z,806.00
2023-03-16T13:39:22.644Z,778.00
2023-03-16T13:43:22.108Z,757.00
2023-03-16T13:47:21.906Z,751.00
2023-03-16T13:51:22.145Z,750.00
2023-03-16T13:55:21.470Z,749.00
2023-03-16T13:59:21.391Z,746.00
2023-03-16T14:03:21.106Z,746.00
2023-03-16T14:07:21.158Z,743.00
2023-03-16T14:11:21.163Z,742.00
2023-03-16T14:15:20.661Z,764.00
2023-03-16T14:19:20.668Z,967.00
2023-03-16T14:23:20.209Z,901.00
2023-03-16T14:27:19.987Z,873.00
2023-03-16T14:31:19.935Z,868.00
2023-03-16T14:35:19.687Z,842.00
2023-03-16T14:39:19.528Z,816.00
2023-03-16T14:43:19.332Z,806.00
2023-03-16T14:47:19.186Z,814.00
2023-03-16T14:51:18.980Z,821.00
2023-03-16T14:55:19.189Z,821.00
2023-03-16T14:59:18.564Z,823.00
2023-03-16T15:03:18.372Z,819.00
2023-03-16T15:07:18.692Z,828.00
2023-03-16T15:11:18.165Z,846.00
2023-03-16T15:15:17.848Z,884.00
2023-03-16T15:19:17.685Z,880.00
2023-03-16T15:23:17.422Z,889.00
2023-03-16T15:27:17.220Z,870.00
2023-03-16T15:31:16.957Z,840.00
2023-03-16T15:35:16.676Z,793.00
2023-03-16T15:39:16.352Z,759.00
2023-03-16T15:43:16.084Z,731.00
2023-03-16T15:47:15.911Z,709.00
2023-03-16T15:51:15.608Z,689.00
2023-03-16T15:55:15.502Z,667.00
2023-03-16T15:59:15.215Z,655.00
2023-03-16T16:03:15.053Z,645.00
2023-03-16T16:07:14.845Z,641.00
2023-03-16T16:11:14.673Z,627.00
2023-03-16T16:15:14.492Z,619.00
2023-03-16T16:19:14.316Z,630.00
2023-03-16T16:23:14.134Z,645.00
2023-03-16T16:27:13.995Z,646.00
2023-03-16T16:31:13.864Z,640.00
2023-03-16T16:35:13.624Z,621.00
2023-03-16T16:39:13.454Z,610.00
2023-03-16T16:43:13.315Z,605.00
2023-03-16T16:47:13.121Z,596.00
2023-03-16T16:51:12.950Z,590.00
2023-03-16T16:55:12.761Z,592.00
2023-03-16T16:59:12.587Z,588.00
2023-03-16T17:03:12.411Z,586.00
2023-03-16T17:07:12.233Z,582.00
2023-03-16T17:11:12.056Z,575.00
2023-03-16T17:15:11.965Z,570.00
2023-03-16T17:19:11.716Z,565.00
2023-03-16T17:23:11.523Z,560.00
2023-03-16T17:27:11.351Z,554.00
2023-03-16T17:31:11.271Z,553.00
2023-03-16T17:35:11.048Z,548.00
2023-03-16T17:39:10.872Z,550.00
2023-03-16T17:43:10.791Z,547.00
2023-03-16T17:47:10.682Z,539.00
2023-03-16T17:51:10.500Z,536.00
2023-03-16T17:55:10.360Z,535.00
2023-03-16T17:59:10.228Z,534.00
2023-03-16T18:03:09.846Z,538.00
2023-03-16T18:07:09.498Z,541.00
2023-03-16T18:11:09.738Z,542.00
2023-03-16T18:15:08.693Z,546.00
2023-03-16T18:19:08.330Z,547.00
2023-03-16T18:23:07.953Z,550.00
2023-03-16T18:27:09.314Z,551.00
2023-03-16T18:31:07.266Z,553.00
2023-03-16T18:35:06.873Z,553.00
2023-03-16T18:39:06.487Z,554.00
2023-03-16T18:43:06.138Z,550.00
2023-03-16T18:47:05.824Z,546.00
2023-03-16T18:51:05.397Z,547.00
2023-03-16T18:55:05.091Z,549.00
2023-03-16T18:59:04.702Z,542.00
2023-03-16T19:03:04.359Z,543.00
2023-03-16T19:07:03.968Z,541.00
2023-03-16T19:11:03.653Z,536.00
2023-03-16T19:15:03.269Z,535.00
2023-03-16T19:19:02.929Z,531.00
2023-03-16T19:23:02.645Z,526.00
2023-03-16T19:27:02.399Z,523.00
2023-03-16T19:31:02.093Z,526.00
2023-03-16T19:35:01.837Z,522.00
2023-03-16T19:39:01.531Z,525.00
2023-03-16T19:43:01.279Z,523.00
2023-03-16T19:47:01.022Z,526.00
2023-03-16T19:51:00.744Z,525.00
2023-03-16T19:55:00.484Z,526.00
2023-03-16T19:59:00.226Z,522.00
2023-03-16T20:02:59.954Z,524.00
2023-03-16T20:06:59.803Z,524.00
2023-03-16T20:10:59.491Z,523.00
2023-03-16T20:14:59.230Z,519.00
2023-03-16T20:18:58.977Z,513.00
2023-03-16T20:22:58.800Z,517.00
2023-03-16T20:26:58.557Z,516.00
2023-03-16T20:30:58.426Z,516.00
2023-03-16T20:34:58.123Z,514.00
2023-03-16T20:38:57.896Z,514.00
2023-03-16T20:42:57.668Z,512.00
2023-03-16T20:46:57.462Z,513.00
2023-03-16T20:50:57.246Z,509.00
2023-03-16T20:54:57.031Z,509.00
2023-03-16T20:58:56.805Z,510.00
2023-03-16T21:02:56.534Z,516.00
2023-03-16T21:06:56.360Z,518.00
2023-03-16T21:10:56.135Z,511.00
2023-03-16T21:14:55.915Z,514.00
2023-03-16T21:18:55.747Z,515.00
2023-03-16T21:22:55.525Z,513.00
2023-03-16T21:26:55.289Z,518.00
2023-03-16T21:30:55.164Z,520.00
2023-03-16T21:34:54.926Z,522.00
2023-03-16T21:38:54.752Z,524.00
2023-03-16T21:42:54.535Z,521.00
2023-03-16T21:46:54.456Z,516.00
2023-03-16T21:50:54.135Z,519.00
2023-03-16T21:54:53.946Z,518.00
2023-03-16T21:58:53.738Z,518.00
2023-03-16T22:02:53.704Z,515.00
2023-03-16T22:06:53.360Z,514.00
2023-03-16T22:10:53.208Z,514.00
2023-03-16T22:14:52.987Z,518.00
2023-03-16T22:18:52.772Z,519.00
2023-03-16T22:22:52.594Z,519.00
2023-03-16T22:26:52.360Z,516.00
2023-03-16T22:30:52.189Z,515.00
2023-03-16T22:34:52.034Z,514.00
2023-03-16T22:38:51.871Z,512.00
2023-03-16T22:42:51.697Z,516.00
2023-03-16T22:46:51.593Z,512.00
2023-03-16T22:50:51.439Z,514.00
2023-03-16T22:54:51.323Z,516.00
2023-03-16T22:58:51.211Z,518.00
2023-03-16T23:02:51.053Z,515.00
2023-03-16T23:06:50.913Z,519.00
2023-03-16T23:10:50.769Z,520.00
2023-03-16T23:14:50.681Z,515.00
2023-03-16T23:18:50.842Z,514.00
2023-03-16T23:22:50.488Z,516.00
2023-03-16T23:26:50.383Z,516.00
2023-03-16T23:30:50.331Z,512.00
2023-03-16T23:34:50.188Z,515.00
2023-03-16T23:38:50.081Z,513.00
2023-03-16T23:42:50.016Z,518.00
2023-03-16T23:46:49.903Z,521.00
2023-03-16T23:50:49.789Z,521.00
2023-03-16T23:54:49.674Z,522.00
2023-03-16T23:58:49.610Z,523.00
